sensor_id;sensor_type;location;lat;lon;timestamp;P1;durP1;ratioP1;P2;durP2;ratioP2
25559;SDS011;13450;49.374;8.584;2022-10-16T16:24:03;3.15;;;1.70;;
25559;SDS011;13450;49.374;8.584;2022-10-16T16:26:33;3.05;;;1.60;;
25559;SDS011;13450;49.374;8.584;2022-10-16T16:29:01;4.47;;;1.90;;
25559;SDS011;13450;49.374;8.584;2022-10-16T16:31:28;3.58;;;1.50;;
25559;SDS011;13450;49.374;8.584;2022-10-16T16:33:55;2.92;;;1.27;;
25559;SDS011;13450;49.374;8.584;2022-10-16T16:36:24;2.78;;;1.35;;
25559;SDS011;13450;49.374;8.584;2022-10-16T16:38:52;3.08;;;1.40;;
25559;SDS011;13450;49.374;8.584;2022-10-16T16:41:19;2.95;;;1.33;;
25559;SDS011;13450;49.374;8.584;2022-10-16T16:43:46;1.40;;;0.80;;
25559;SDS011;13450;49.374;8.584;2022-10-16T16:46:22;3.10;;;1.17;;
25559;SDS011;13450;49.374;8.584;2022-10-16T16:48:47;4.15;;;1.40;;
25559;SDS011;13450;49.374;8.584;2022-10-16T16:51:15;2.83;;;0.95;;
25559;SDS011;13450;49.374;8.584;2022-10-16T16:53:45;3.92;;;1.42;;
25559;SDS011;13450;49.374;8.584;2022-10-16T16:56:12;3.25;;;1.50;;
25559;SDS011;13450;49.374;8.584;2022-10-16T16:58:37;1.77;;;0.73;;
25559;SDS011;13450;49.374;8.584;2022-10-16T17:01:05;2.45;;;1.25;;
25559;SDS011;13450;49.374;8.584;2022-10-16T17:03:31;3.33;;;1.50;;
25559;SDS011;13450;49.374;8.584;2022-10-16T17:08:26;3.87;;;1.60;;
25559;SDS011;13450;49.374;8.584;2022-10-16T17:10:54;3.55;;;1.80;;
25559;SDS011;13450;49.374;8.584;2022-10-16T17:13:21;3.83;;;1.65;;
25559;SDS011;13450;49.374;8.584;2022-10-16T17:15:48;5.63;;;2.78;;
25559;SDS011;13450;49.374;8.584;2022-10-16T17:18:14;4.70;;;2.22;;
25559;SDS011;13450;49.374;8.584;2022-10-16T17:20:42;3.30;;;1.52;;
25559;SDS011;13450;49.374;8.584;2022-10-16T17:23:09;3.78;;;2.03;;
25559;SDS011;13450;49.374;8.584;2022-10-16T17:25:36;3.80;;;2.00;;
25559;SDS011;13450;49.374;8.584;2022-10-16T17:30:37;5.15;;;2.40;;
25559;SDS011;13450;49.374;8.584;2022-10-16T17:33:04;3.10;;;1.55;;
25559;SDS011;13450;49.374;8.584;2022-10-16T17:35:37;3.67;;;1.80;;
25559;SDS011;13450;49.374;8.584;2022-10-16T17:38:08;2.92;;;1.50;;
25559;SDS011;13450;49.374;8.584;2022-10-16T17:40:33;4.03;;;1.75;;
25559;SDS011;13450;49.374;8.584;2022-10-16T17:42:59;6.13;;;2.30;;
25559;SDS011;13450;49.374;8.584;2022-10-16T17:45:25;4.18;;;2.08;;
25559;SDS011;13450;49.374;8.584;2022-10-16T17:47:51;8.23;;;3.30;;
25559;SDS011;13450;49.374;8.584;2022-10-16T17:50:16;3.20;;;1.50;;
25559;SDS011;13450;49.374;8.584;2022-10-16T17:52:42;4.38;;;2.45;;
25559;SDS011;13450;49.374;8.584;2022-10-16T17:55:07;13.18;;;4.68;;
25559;SDS011;13450;49.374;8.584;2022-10-16T17:57:33;8.13;;;4.32;;
25559;SDS011;13450;49.374;8.584;2022-10-16T17:59:58;6.47;;;2.80;;
25559;SDS011;13450;49.374;8.584;2022-10-16T18:02:23;7.00;;;3.10;;
25559;SDS011;13450;49.374;8.584;2022-10-16T18:04:49;7.70;;;3.67;;
25559;SDS011;13450;49.374;8.584;2022-10-16T18:07:16;5.97;;;2.78;;
25559;SDS011;13450;49.374;8.584;2022-10-16T18:09:41;3.83;;;1.95;;
25559;SDS011;13450;49.374;8.584;2022-10-16T18:12:09;5.10;;;2.83;;
25559;SDS011;13450;49.374;8.584;2022-10-16T18:14:34;3.88;;;2.00;;
25559;SDS011;13450;49.374;8.584;2022-10-16T18:17:02;3.65;;;1.60;;
25559;SDS011;13450;49.374;8.584;2022-10-16T18:19:27;5.15;;;1.98;;
25559;SDS011;13450;49.374;8.584;2022-10-16T18:21:52;5.78;;;2.60;;
25559;SDS011;13450;49.374;8.584;2022-10-16T18:24:19;5.13;;;2.00;;
25559;SDS011;13450;49.374;8.584;2022-10-16T18:26:48;6.63;;;2.80;;
25559;SDS011;13450;49.374;8.584;2022-10-16T18:29:13;4.28;;;1.92;;
25559;SDS011;13450;49.374;8.584;2022-10-16T18:31:39;5.15;;;2.08;;
25559;SDS011;13450;49.374;8.584;2022-10-16T18:34:05;5.78;;;2.95;;
25559;SDS011;13450;49.374;8.584;2022-10-16T18:36:31;5.38;;;2.28;;
25559;SDS011;13450;49.374;8.584;2022-10-16T18:38:58;5.80;;;2.67;;
25559;SDS011;13450;49.374;8.584;2022-10-16T18:41:25;6.78;;;2.28;;
25559;SDS011;13450;49.374;8.584;2022-10-16T18:43:51;2.90;;;1.40;;
25559;SDS011;13450;49.374;8.584;2022-10-16T18:46:17;7.65;;;2.92;;
25559;SDS011;13450;49.374;8.584;2022-10-16T18:48:44;4.70;;;2.40;;
25559;SDS011;13450;49.374;8.584;2022-10-16T18:51:17;6.30;;;2.97;;
25559;SDS011;13450;49.374;8.584;2022-10-16T18:53:46;6.53;;;3.10;;
25559;SDS011;13450;49.374;8.584;2022-10-16T18:56:14;5.30;;;2.93;;
25559;SDS011;13450;49.374;8.584;2022-10-16T18:58:41;5.10;;;2.60;;
25559;SDS011;13450;49.374;8.584;2022-10-16T19:01:09;4.85;;;2.42;;
25559;SDS011;13450;49.374;8.584;2022-10-16T19:03:39;7.15;;;3.28;;
25559;SDS011;13450;49.374;8.584;2022-10-16T19:06:06;8.45;;;3.13;;
25559;SDS011;13450;49.374;8.584;2022-10-16T19:08:36;9.75;;;3.95;;
25559;SDS011;13450;49.374;8.584;2022-10-16T19:11:03;9.98;;;4.10;;
25559;SDS011;13450;49.374;8.584;2022-10-16T19:13:30;7.93;;;3.95;;
25559;SDS011;13450;49.374;8.584;2022-10-16T19:15:56;10.18;;;4.00;;
25559;SDS011;13450;49.374;8.584;2022-10-16T19:18:22;6.57;;;3.08;;
25559;SDS011;13450;49.374;8.584;2022-10-16T19:20:48;5.30;;;2.72;;
25559;SDS011;13450;49.374;8.584;2022-10-16T19:23:13;5.38;;;2.83;;
25559;SDS011;13450;49.374;8.584;2022-10-16T19:25:40;5.22;;;1.98;;
25559;SDS011;13450;49.374;8.584;2022-10-16T19:28:06;5.85;;;2.38;;
25559;SDS011;13450;49.374;8.584;2022-10-16T19:30:38;5.63;;;2.38;;
25559;SDS011;13450;49.374;8.584;2022-10-16T19:33:05;4.75;;;2.22;;
25559;SDS011;13450;49.374;8.584;2022-10-16T19:35:31;5.07;;;2.30;;
25559;SDS011;13450;49.374;8.584;2022-10-16T19:37:57;4.13;;;1.80;;
25559;SDS011;13450;49.374;8.584;2022-10-16T19:40:23;5.55;;;2.20;;
25559;SDS011;13450;49.374;8.584;2022-10-16T19:42:49;6.28;;;2.63;;
25559;SDS011;13450;49.374;8.584;2022-10-16T19:45:14;6.35;;;2.00;;
25559;SDS011;13450;49.374;8.584;2022-10-16T19:47:42;3.72;;;1.75;;
25559;SDS011;13450;49.374;8.584;2022-10-16T19:50:09;3.63;;;1.58;;
25559;SDS011;13450;49.374;8.584;2022-10-16T19:52:36;3.70;;;1.50;;
25559;SDS011;13450;49.374;8.584;2022-10-16T19:55:05;4.22;;;1.80;;
25559;SDS011;13450;49.374;8.584;2022-10-16T19:57:32;3.83;;;1.73;;
25559;SDS011;13450;49.374;8.584;2022-10-16T20:00:03;3.92;;;1.67;;
25559;SDS011;13450;49.374;8.584;2022-10-16T20:02:31;4.30;;;1.70;;
25559;SDS011;13450;49.374;8.584;2022-10-16T20:04:56;3.63;;;1.80;;
25559;SDS011;13450;49.374;8.584;2022-10-16T20:07:22;3.38;;;1.50;;
25559;SDS011;13450;49.374;8.584;2022-10-16T20:09:47;3.40;;;1.48;;
25559;SDS011;13450;49.374;8.584;2022-10-16T20:12:15;4.10;;;1.55;;
25559;SDS011;13450;49.374;8.584;2022-10-16T20:14:41;4.82;;;1.70;;
25559;SDS011;13450;49.374;8.584;2022-10-16T20:17:06;3.25;;;1.42;;
25559;SDS011;13450;49.374;8.584;2022-10-16T20:19:32;3.22;;;1.48;;
25559;SDS011;13450;49.374;8.584;2022-10-16T20:21:58;2.58;;;1.38;;
25559;SDS011;13450;49.374;8.584;2022-10-16T20:24:23;2.90;;;1.30;;
25559;SDS011;13450;49.374;8.584;2022-10-16T20:26:49;8.70;;;1.80;;
25559;SDS011;13450;49.374;8.584;2022-10-16T20:29:14;3.65;;;1.30;;
25559;SDS011;13450;49.374;8.584;2022-10-16T20:31:40;4.05;;;1.60;;
25559;SDS011;13450;49.374;8.584;2022-10-16T20:34:09;3.47;;;1.77;;
25559;SDS011;13450;49.374;8.584;2022-10-16T20:36:37;4.85;;;1.80;;
25559;SDS011;13450;49.374;8.584;2022-10-16T20:39:04;2.28;;;1.10;;
25559;SDS011;13450;49.374;8.584;2022-10-16T20:41:30;2.35;;;1.13;;
25559;SDS011;13450;49.374;8.584;2022-10-16T20:43:58;3.38;;;1.33;;
25559;SDS011;13450;49.374;8.584;2022-10-16T20:46:25;2.47;;;1.30;;
25559;SDS011;13450;49.374;8.584;2022-10-16T20:48:51;3.30;;;1.40;;
25559;SDS011;13450;49.374;8.584;2022-10-16T20:51:19;2.65;;;1.23;;
25559;SDS011;13450;49.374;8.584;2022-10-16T20:53:50;2.97;;;1.45;;
25559;SDS011;13450;49.374;8.584;2022-10-16T21:09:06;2.78;;;1.40;;
25559;SDS011;13450;49.374;8.584;2022-10-16T21:11:32;4.10;;;1.30;;
25559;SDS011;13450;49.374;8.584;2022-10-16T21:14:00;2.60;;;1.08;;
25559;SDS011;13450;49.374;8.584;2022-10-16T21:16:28;3.03;;;1.15;;
25559;SDS011;13450;49.374;8.584;2022-10-16T21:18:54;2.78;;;1.27;;
25559;SDS011;13450;49.374;8.584;2022-10-16T21:26:31;3.15;;;1.42;;
25559;SDS011;13450;49.374;8.584;2022-10-16T21:47:13;3.67;;;1.70;;
25559;SDS011;13450;49.374;8.584;2022-10-16T21:49:39;3.85;;;1.73;;
25559;SDS011;13450;49.374;8.584;2022-10-16T21:59:47;3.55;;;1.48;;
25559;SDS011;13450;49.374;8.584;2022-10-16T22:08:52;2.80;;;1.38;;
25559;SDS011;13450;49.374;8.584;2022-10-16T22:11:21;2.50;;;1.27;;
25559;SDS011;13450;49.374;8.584;2022-10-16T22:16:26;3.72;;;1.55;;
25559;SDS011;13450;49.374;8.584;2022-10-16T22:18:52;5.07;;;1.38;;
25559;SDS011;13450;49.374;8.584;2022-10-16T22:21:22;3.63;;;1.15;;
25559;SDS011;13450;49.374;8.584;2022-10-16T22:23:47;2.60;;;1.20;;
25559;SDS011;13450;49.374;8.584;2022-10-16T22:26:13;3.22;;;1.25;;
25559;SDS011;13450;49.374;8.584;2022-10-16T22:41:35;2.47;;;1.27;;
25559;SDS011;13450;49.374;8.584;2022-10-16T22:44:01;2.70;;;1.13;;
25559;SDS011;13450;49.374;8.584;2022-10-16T22:46:29;3.85;;;1.23;;
25559;SDS011;13450;49.374;8.584;2022-10-16T22:48:55;3.47;;;1.33;;
25559;SDS011;13450;49.374;8.584;2022-10-16T22:51:22;2.83;;;1.42;;
25559;SDS011;13450;49.374;8.584;2022-10-16T22:53:49;2.72;;;1.13;;
25559;SDS011;13450;49.374;8.584;2022-10-16T22:56:20;2.88;;;1.30;;
25559;SDS011;13450;49.374;8.584;2022-10-16T23:01:24;2.90;;;1.10;;
25559;SDS011;13450;49.374;8.584;2022-10-16T23:03:54;4.43;;;1.30;;
25559;SDS011;13450;49.374;8.584;2022-10-16T23:06:25;3.58;;;1.30;;
25559;SDS011;13450;49.374;8.584;2022-10-16T23:08:56;2.72;;;1.27;;
25559;SDS011;13450;49.374;8.584;2022-10-16T23:11:23;2.75;;;1.20;;
25559;SDS011;13450;49.374;8.584;2022-10-16T23:13:51;5.50;;;1.30;;
25559;SDS011;13450;49.374;8.584;2022-10-16T23:16:20;4.25;;;1.20;;
25559;SDS011;13450;49.374;8.584;2022-10-16T23:18:50;4.90;;;1.40;;
25559;SDS011;13450;49.374;8.584;2022-10-16T23:45:47;2.88;;;1.10;;
25559;SDS011;13450;49.374;8.584;2022-10-16T23:48:13;3.33;;;1.30;;
25559;SDS011;13450;49.374;8.584;2022-10-16T23:50:38;3.58;;;1.30;;
25559;SDS011;13450;49.374;8.584;2022-10-16T23:53:06;2.90;;;1.38;;
25559;SDS011;13450;49.374;8.584;2022-10-16T23:55:34;2.17;;;1.10;;
25559;SDS011;13450;49.374;8.584;2022-10-16T23:57:59;2.25;;;1.00;;
